sensor_id;sensor_type;location;lat;lon;timestamp;P1;durP1;ratioP1;P2;durP2;ratioP2
16862;SDS011;52193;48.216;-1.698;2023-02-08T00:00:21;14.57;;;13.45;;
16862;SDS011;52193;48.216;-1.698;2023-02-08T00:02:50;14.25;;;13.00;;
16862;SDS011;52193;48.216;-1.698;2023-02-08T00:05:17;15.50;;;14.10;;
16862;SDS011;52193;48.216;-1.698;2023-02-08T00:07:44;14.70;;;13.30;;
16862;SDS011;52193;48.216;-1.698;2023-02-08T00:10:11;15.35;;;14.15;;
16862;SDS011;52193;48.216;-1.698;2023-02-08T00:12:38;13.55;;;12.45;;
16862;SDS011;52193;48.216;-1.698;2023-02-08T00:15:05;14.52;;;13.23;;
16862;SDS011;52193;48.216;-1.698;2023-02-08T00:17:33;14.10;;;12.98;;
16862;SDS011;52193;48.216;-1.698;2023-02-08T00:20:01;14.45;;;13.15;;
16862;SDS011;52193;48.216;-1.698;2023-02-08T00:22:28;15.35;;;13.95;;
16862;SDS011;52193;48.216;-1.698;2023-02-08T00:24:56;14.43;;;13.02;;
16862;SDS011;52193;48.216;-1.698;2023-02-08T00:27:23;13.70;;;12.50;;
16862;SDS011;52193;48.216;-1.698;2023-02-08T00:29:50;13.82;;;12.73;;
16862;SDS011;52193;48.216;-1.698;2023-02-08T00:32:17;13.98;;;12.77;;
16862;SDS011;52193;48.216;-1.698;2023-02-08T00:34:44;14.98;;;13.68;;
16862;SDS011;52193;48.216;-1.698;2023-02-08T00:37:12;15.45;;;14.05;;
16862;SDS011;52193;48.216;-1.698;2023-02-08T00:39:39;13.98;;;12.77;;
16862;SDS011;52193;48.216;-1.698;2023-02-08T00:42:06;13.95;;;12.75;;
16862;SDS011;52193;48.216;-1.698;2023-02-08T00:44:33;14.43;;;13.05;;
16862;SDS011;52193;48.216;-1.698;2023-02-08T00:47:00;13.52;;;12.50;;
16862;SDS011;52193;48.216;-1.698;2023-02-08T00:49:27;13.10;;;12.10;;
16862;SDS011;52193;48.216;-1.698;2023-02-08T00:51:54;12.77;;;11.77;;
16862;SDS011;52193;48.216;-1.698;2023-02-08T00:54:22;13.07;;;12.10;;
16862;SDS011;52193;48.216;-1.698;2023-02-08T00:56:49;14.02;;;12.93;;
16862;SDS011;52193;48.216;-1.698;2023-02-08T00:59:16;13.30;;;12.30;;
16862;SDS011;52193;48.216;-1.698;2023-02-08T01:01:43;13.45;;;12.35;;
16862;SDS011;52193;48.216;-1.698;2023-02-08T01:04:10;13.32;;;12.32;;
16862;SDS011;52193;48.216;-1.698;2023-02-08T01:06:37;13.82;;;12.63;;
16862;SDS011;52193;48.216;-1.698;2023-02-08T01:09:04;14.00;;;12.90;;
16862;SDS011;52193;48.216;-1.698;2023-02-08T01:11:32;13.48;;;12.43;;
16862;SDS011;52193;48.216;-1.698;2023-02-08T01:13:59;13.57;;;12.48;;
16862;SDS011;52193;48.216;-1.698;2023-02-08T01:16:27;12.82;;;11.73;;
16862;SDS011;52193;48.216;-1.698;2023-02-08T01:18:56;12.68;;;11.75;;
16862;SDS011;52193;48.216;-1.698;2023-02-08T01:21:25;13.23;;;12.18;;
16862;SDS011;52193;48.216;-1.698;2023-02-08T01:23:53;13.10;;;11.90;;
16862;SDS011;52193;48.216;-1.698;2023-02-08T01:26:21;13.38;;;12.25;;
16862;SDS011;52193;48.216;-1.698;2023-02-08T01:28:51;13.13;;;12.02;;
16862;SDS011;52193;48.216;-1.698;2023-02-08T01:31:19;12.52;;;11.52;;
16862;SDS011;52193;48.216;-1.698;2023-02-08T01:33:48;13.18;;;12.07;;
16862;SDS011;52193;48.216;-1.698;2023-02-08T01:36:15;12.90;;;11.90;;
16862;SDS011;52193;48.216;-1.698;2023-02-08T01:38:43;12.00;;;11.10;;
16862;SDS011;52193;48.216;-1.698;2023-02-08T01:41:12;11.85;;;10.93;;
16862;SDS011;52193;48.216;-1.698;2023-02-08T01:43:59;12.38;;;11.38;;
16862;SDS011;52193;48.216;-1.698;2023-02-08T01:46:28;12.50;;;11.60;;
16862;SDS011;52193;48.216;-1.698;2023-02-08T01:48:57;13.10;;;12.00;;
16862;SDS011;52193;48.216;-1.698;2023-02-08T01:51:27;11.95;;;11.00;;
16862;SDS011;52193;48.216;-1.698;2023-02-08T01:53:58;12.50;;;11.55;;
16862;SDS011;52193;48.216;-1.698;2023-02-08T01:56:29;13.52;;;12.43;;
16862;SDS011;52193;48.216;-1.698;2023-02-08T01:59:01;14.25;;;13.02;;
16862;SDS011;52193;48.216;-1.698;2023-02-08T02:01:31;13.80;;;12.73;;
16862;SDS011;52193;48.216;-1.698;2023-02-08T02:03:58;13.27;;;12.15;;
16862;SDS011;52193;48.216;-1.698;2023-02-08T02:06:28;12.73;;;11.73;;
16862;SDS011;52193;48.216;-1.698;2023-02-08T02:09:00;13.15;;;12.15;;
16862;SDS011;52193;48.216;-1.698;2023-02-08T02:11:32;14.27;;;12.88;;
16862;SDS011;52193;48.216;-1.698;2023-02-08T02:14:01;13.65;;;12.55;;
16862;SDS011;52193;48.216;-1.698;2023-02-08T02:16:29;12.77;;;11.77;;
16862;SDS011;52193;48.216;-1.698;2023-02-08T02:18:56;12.60;;;11.70;;
16862;SDS011;52193;48.216;-1.698;2023-02-08T02:21:27;12.95;;;11.95;;
16862;SDS011;52193;48.216;-1.698;2023-02-08T02:24:10;12.95;;;11.80;;
16862;SDS011;52193;48.216;-1.698;2023-02-08T02:33:03;12.43;;;11.40;;
16862;SDS011;52193;48.216;-1.698;2023-02-08T02:35:52;13.52;;;12.43;;
16862;SDS011;52193;48.216;-1.698;2023-02-08T02:38:26;14.05;;;12.90;;
16862;SDS011;52193;48.216;-1.698;2023-02-08T02:41:04;13.82;;;12.73;;
16862;SDS011;52193;48.216;-1.698;2023-02-08T02:43:38;14.82;;;13.60;;
16862;SDS011;52193;48.216;-1.698;2023-02-08T02:46:20;14.27;;;13.10;;
16862;SDS011;52193;48.216;-1.698;2023-02-08T02:48:53;13.80;;;12.80;;
16862;SDS011;52193;48.216;-1.698;2023-02-08T02:51:26;14.15;;;13.00;;
16862;SDS011;52193;48.216;-1.698;2023-02-08T02:53:57;15.10;;;13.90;;
16862;SDS011;52193;48.216;-1.698;2023-02-08T02:56:29;14.02;;;12.93;;
16862;SDS011;52193;48.216;-1.698;2023-02-08T02:59:01;13.93;;;12.77;;
16862;SDS011;52193;48.216;-1.698;2023-02-08T03:01:31;13.85;;;12.75;;
16862;SDS011;52193;48.216;-1.698;2023-02-08T03:04:00;14.10;;;12.90;;
16862;SDS011;52193;48.216;-1.698;2023-02-08T03:06:40;13.18;;;12.15;;
16862;SDS011;52193;48.216;-1.698;2023-02-08T03:09:30;13.32;;;12.32;;
16862;SDS011;52193;48.216;-1.698;2023-02-08T03:12:09;13.02;;;12.02;;
16862;SDS011;52193;48.216;-1.698;2023-02-08T03:14:49;12.45;;;11.45;;
16862;SDS011;52193;48.216;-1.698;2023-02-08T03:17:30;12.25;;;11.35;;
16862;SDS011;52193;48.216;-1.698;2023-02-08T03:20:05;13.15;;;12.13;;
16862;SDS011;52193;48.216;-1.698;2023-02-08T03:22:44;12.30;;;11.40;;
16862;SDS011;52193;48.216;-1.698;2023-02-08T03:25:23;13.30;;;12.30;;
16862;SDS011;52193;48.216;-1.698;2023-02-08T03:27:57;12.88;;;11.88;;
16862;SDS011;52193;48.216;-1.698;2023-02-08T03:30:30;11.98;;;10.98;;
16862;SDS011;52193;48.216;-1.698;2023-02-08T03:33:10;11.68;;;10.88;;
16862;SDS011;52193;48.216;-1.698;2023-02-08T03:35:42;12.13;;;11.15;;
16862;SDS011;52193;48.216;-1.698;2023-02-08T03:38:15;11.85;;;10.88;;
16862;SDS011;52193;48.216;-1.698;2023-02-08T03:40:46;12.80;;;11.60;;
16862;SDS011;52193;48.216;-1.698;2023-02-08T03:43:18;11.95;;;10.95;;
16862;SDS011;52193;48.216;-1.698;2023-02-08T03:45:51;11.40;;;10.60;;
16862;SDS011;52193;48.216;-1.698;2023-02-08T03:48:22;13.00;;;11.90;;
16862;SDS011;52193;48.216;-1.698;2023-02-08T03:50:53;12.52;;;11.52;;
16862;SDS011;52193;48.216;-1.698;2023-02-08T03:53:22;12.90;;;11.80;;
16862;SDS011;52193;48.216;-1.698;2023-02-08T03:55:50;13.48;;;12.38;;
16862;SDS011;52193;48.216;-1.698;2023-02-08T03:58:24;12.65;;;11.73;;
16862;SDS011;52193;48.216;-1.698;2023-02-08T04:00:54;13.32;;;12.10;;
16862;SDS011;52193;48.216;-1.698;2023-02-08T04:03:25;13.18;;;12.05;;
16862;SDS011;52193;48.216;-1.698;2023-02-08T04:05:55;11.90;;;11.00;;
16862;SDS011;52193;48.216;-1.698;2023-02-08T04:08:22;12.38;;;11.32;;
16862;SDS011;52193;48.216;-1.698;2023-02-08T04:10:50;13.18;;;11.90;;
16862;SDS011;52193;48.216;-1.698;2023-02-08T04:13:17;13.00;;;12.00;;
16862;SDS011;52193;48.216;-1.698;2023-02-08T04:15:44;12.35;;;11.35;;
16862;SDS011;52193;48.216;-1.698;2023-02-08T04:18:11;11.75;;;10.85;;
16862;SDS011;52193;48.216;-1.698;2023-02-08T04:20:38;12.55;;;11.60;;
16862;SDS011;52193;48.216;-1.698;2023-02-08T04:23:06;12.07;;;11.15;;
16862;SDS011;52193;48.216;-1.698;2023-02-08T04:25:33;11.52;;;10.68;;
16862;SDS011;52193;48.216;-1.698;2023-02-08T04:28:00;12.15;;;11.25;;
16862;SDS011;52193;48.216;-1.698;2023-02-08T04:30:27;11.48;;;10.65;;
16862;SDS011;52193;48.216;-1.698;2023-02-08T04:32:54;11.77;;;10.68;;
16862;SDS011;52193;48.216;-1.698;2023-02-08T04:35:22;11.32;;;10.52;;
16862;SDS011;52193;48.216;-1.698;2023-02-08T04:37:49;11.63;;;10.82;;
16862;SDS011;52193;48.216;-1.698;2023-02-08T04:40:17;12.55;;;11.43;;
16862;SDS011;52193;48.216;-1.698;2023-02-08T04:42:44;12.65;;;11.65;;
16862;SDS011;52193;48.216;-1.698;2023-02-08T04:45:11;12.82;;;11.77;;
16862;SDS011;52193;48.216;-1.698;2023-02-08T04:47:38;12.48;;;11.48;;
16862;SDS011;52193;48.216;-1.698;2023-02-08T04:50:05;12.23;;;11.30;;
16862;SDS011;52193;48.216;-1.698;2023-02-08T04:52:32;11.38;;;10.55;;
16862;SDS011;52193;48.216;-1.698;2023-02-08T04:54:59;11.73;;;10.88;;
16862;SDS011;52193;48.216;-1.698;2023-02-08T04:57:27;11.60;;;10.73;;
16862;SDS011;52193;48.216;-1.698;2023-02-08T04:59:54;11.63;;;10.70;;
16862;SDS011;52193;48.216;-1.698;2023-02-08T05:02:21;11.55;;;10.65;;
16862;SDS011;52193;48.216;-1.698;2023-02-08T05:04:48;12.07;;;11.07;;
16862;SDS011;52193;48.216;-1.698;2023-02-08T05:07:15;12.13;;;11.30;;
16862;SDS011;52193;48.216;-1.698;2023-02-08T05:09:42;12.20;;;11.25;;
16862;SDS011;52193;48.216;-1.698;2023-02-08T05:12:09;12.57;;;11.68;;
16862;SDS011;52193;48.216;-1.698;2023-02-08T05:14:38;12.07;;;11.13;;
16862;SDS011;52193;48.216;-1.698;2023-02-08T05:17:05;12.13;;;11.23;;
16862;SDS011;52193;48.216;-1.698;2023-02-08T05:19:32;12.02;;;11.07;;
16862;SDS011;52193;48.216;-1.698;2023-02-08T05:21:59;12.65;;;11.70;;
16862;SDS011;52193;48.216;-1.698;2023-02-08T05:24:26;11.05;;;10.23;;
16862;SDS011;52193;48.216;-1.698;2023-02-08T05:26:53;11.63;;;10.65;;
16862;SDS011;52193;48.216;-1.698;2023-02-08T05:29:20;12.38;;;11.48;;
16862;SDS011;52193;48.216;-1.698;2023-02-08T05:31:48;11.85;;;10.93;;
16862;SDS011;52193;48.216;-1.698;2023-02-08T05:34:15;11.63;;;10.77;;
16862;SDS011;52193;48.216;-1.698;2023-02-08T05:36:42;11.00;;;10.13;;
16862;SDS011;52193;48.216;-1.698;2023-02-08T05:39:09;12.35;;;11.45;;
16862;SDS011;52193;48.216;-1.698;2023-02-08T05:41:36;13.57;;;12.57;;
16862;SDS011;52193;48.216;-1.698;2023-02-08T05:44:03;12.45;;;11.45;;
16862;SDS011;52193;48.216;-1.698;2023-02-08T05:46:30;11.60;;;10.70;;
16862;SDS011;52193;48.216;-1.698;2023-02-08T05:48:59;13.07;;;12.07;;
16862;SDS011;52193;48.216;-1.698;2023-02-08T05:51:25;12.68;;;11.77;;
16862;SDS011;52193;48.216;-1.698;2023-02-08T05:53:52;12.27;;;11.38;;
16862;SDS011;52193;48.216;-1.698;2023-02-08T05:56:19;12.57;;;11.68;;
16862;SDS011;52193;48.216;-1.698;2023-02-08T05:58:46;12.07;;;11.15;;
16862;SDS011;52193;48.216;-1.698;2023-02-08T06:01:13;12.52;;;11.52;;
16862;SDS011;52193;48.216;-1.698;2023-02-08T06:03:40;11.98;;;11.02;;
16862;SDS011;52193;48.216;-1.698;2023-02-08T06:06:08;12.55;;;11.45;;
16862;SDS011;52193;48.216;-1.698;2023-02-08T06:08:36;12.77;;;11.68;;
16862;SDS011;52193;48.216;-1.698;2023-02-08T06:11:03;12.38;;;11.38;;
16862;SDS011;52193;48.216;-1.698;2023-02-08T06:13:31;11.68;;;10.75;;
16862;SDS011;52193;48.216;-1.698;2023-02-08T06:15:58;11.93;;;11.02;;
16862;SDS011;52193;48.216;-1.698;2023-02-08T06:18:25;13.18;;;12.18;;
16862;SDS011;52193;48.216;-1.698;2023-02-08T06:20:52;14.25;;;13.00;;
16862;SDS011;52193;48.216;-1.698;2023-02-08T06:23:21;15.13;;;13.82;;
16862;SDS011;52193;48.216;-1.698;2023-02-08T06:25:49;13.98;;;12.77;;
16862;SDS011;52193;48.216;-1.698;2023-02-08T06:28:16;14.30;;;13.02;;
16862;SDS011;52193;48.216;-1.698;2023-02-08T06:30:43;13.02;;;12.02;;
16862;SDS011;52193;48.216;-1.698;2023-02-08T06:33:10;13.18;;;11.93;;
16862;SDS011;52193;48.216;-1.698;2023-02-08T06:35:37;13.82;;;12.43;;
16862;SDS011;52193;48.216;-1.698;2023-02-08T06:38:04;12.57;;;11.48;;
16862;SDS011;52193;48.216;-1.698;2023-02-08T06:40:32;12.52;;;11.35;;
16862;SDS011;52193;48.216;-1.698;2023-02-08T06:42:59;12.00;;;11.05;;
16862;SDS011;52193;48.216;-1.698;2023-02-08T06:45:26;13.10;;;12.10;;
16862;SDS011;52193;48.216;-1.698;2023-02-08T06:47:53;12.30;;;11.32;;
16862;SDS011;52193;48.216;-1.698;2023-02-08T06:50:20;12.50;;;11.52;;
16862;SDS011;52193;48.216;-1.698;2023-02-08T06:52:47;13.32;;;12.20;;
16862;SDS011;52193;48.216;-1.698;2023-02-08T06:55:14;14.20;;;13.10;;
16862;SDS011;52193;48.216;-1.698;2023-02-08T06:57:42;14.63;;;13.40;;
16862;SDS011;52193;48.216;-1.698;2023-02-08T07:00:10;13.73;;;12.60;;
16862;SDS011;52193;48.216;-1.698;2023-02-08T07:02:38;15.43;;;14.13;;
16862;SDS011;52193;48.216;-1.698;2023-02-08T07:05:05;14.77;;;13.55;;
16862;SDS011;52193;48.216;-1.698;2023-02-08T07:07:32;15.57;;;14.18;;
16862;SDS011;52193;48.216;-1.698;2023-02-08T07:09:59;13.82;;;12.73;;
16862;SDS011;52193;48.216;-1.698;2023-02-08T07:12:26;14.57;;;13.38;;
16862;SDS011;52193;48.216;-1.698;2023-02-08T07:14:54;13.85;;;12.75;;
16862;SDS011;52193;48.216;-1.698;2023-02-08T07:17:21;14.15;;;12.90;;
16862;SDS011;52193;48.216;-1.698;2023-02-08T07:19:48;14.60;;;13.25;;
16862;SDS011;52193;48.216;-1.698;2023-02-08T07:22:16;15.15;;;13.02;;
16862;SDS011;52193;48.216;-1.698;2023-02-08T07:24:43;14.20;;;12.95;;
16862;SDS011;52193;48.216;-1.698;2023-02-08T07:27:10;15.93;;;12.98;;
16862;SDS011;52193;48.216;-1.698;2023-02-08T07:29:38;14.65;;;13.52;;
16862;SDS011;52193;48.216;-1.698;2023-02-08T07:32:07;14.60;;;13.30;;
16862;SDS011;52193;48.216;-1.698;2023-02-08T07:34:35;15.05;;;13.75;;
16862;SDS011;52193;48.216;-1.698;2023-02-08T07:37:05;15.40;;;14.00;;
16862;SDS011;52193;48.216;-1.698;2023-02-08T07:39:32;16.45;;;14.95;;
16862;SDS011;52193;48.216;-1.698;2023-02-08T07:41:59;16.67;;;15.18;;
16862;SDS011;52193;48.216;-1.698;2023-02-08T07:44:26;15.85;;;14.55;;
16862;SDS011;52193;48.216;-1.698;2023-02-08T07:46:53;16.23;;;14.68;;
16862;SDS011;52193;48.216;-1.698;2023-02-08T07:49:21;16.30;;;14.70;;
16862;SDS011;52193;48.216;-1.698;2023-02-08T07:51:48;15.40;;;13.90;;
16862;SDS011;52193;48.216;-1.698;2023-02-08T07:54:15;14.60;;;13.45;;
16862;SDS011;52193;48.216;-1.698;2023-02-08T07:56:42;16.35;;;14.90;;
16862;SDS011;52193;48.216;-1.698;2023-02-08T07:59:09;17.35;;;15.82;;
16862;SDS011;52193;48.216;-1.698;2023-02-08T08:01:36;16.55;;;15.15;;
16862;SDS011;52193;48.216;-1.698;2023-02-08T08:04:03;17.92;;;16.42;;
16862;SDS011;52193;48.216;-1.698;2023-02-08T08:06:32;18.50;;;16.88;;
16862;SDS011;52193;48.216;-1.698;2023-02-08T08:08:59;18.40;;;16.70;;
16862;SDS011;52193;48.216;-1.698;2023-02-08T08:11:25;20.02;;;18.02;;
16862;SDS011;52193;48.216;-1.698;2023-02-08T08:13:52;19.52;;;17.73;;
16862;SDS011;52193;48.216;-1.698;2023-02-08T08:16:19;18.02;;;16.58;;
16862;SDS011;52193;48.216;-1.698;2023-02-08T08:18:46;17.98;;;16.38;;
16862;SDS011;52193;48.216;-1.698;2023-02-08T08:21:14;17.95;;;16.00;;
16862;SDS011;52193;48.216;-1.698;2023-02-08T08:23:43;16.67;;;15.18;;
16862;SDS011;52193;48.216;-1.698;2023-02-08T08:26:10;20.00;;;18.08;;
16862;SDS011;52193;48.216;-1.698;2023-02-08T08:28:39;20.27;;;18.27;;
16862;SDS011;52193;48.216;-1.698;2023-02-08T08:31:09;19.27;;;17.38;;
16862;SDS011;52193;48.216;-1.698;2023-02-08T08:33:37;18.83;;;17.17;;
16862;SDS011;52193;48.216;-1.698;2023-02-08T08:36:04;19.23;;;17.30;;
16862;SDS011;52193;48.216;-1.698;2023-02-08T08:38:31;18.40;;;16.52;;
16862;SDS011;52193;48.216;-1.698;2023-02-08T08:41:00;22.60;;;19.77;;
16862;SDS011;52193;48.216;-1.698;2023-02-08T08:43:26;25.88;;;23.48;;
16862;SDS011;52193;48.216;-1.698;2023-02-08T08:45:53;23.67;;;21.58;;
16862;SDS011;52193;48.216;-1.698;2023-02-08T08:48:21;22.13;;;19.92;;
16862;SDS011;52193;48.216;-1.698;2023-02-08T08:50:47;22.85;;;20.77;;
16862;SDS011;52193;48.216;-1.698;2023-02-08T08:53:15;21.00;;;18.85;;
16862;SDS011;52193;48.216;-1.698;2023-02-08T08:55:43;19.83;;;17.95;;
16862;SDS011;52193;48.216;-1.698;2023-02-08T08:58:11;19.48;;;17.63;;
16862;SDS011;52193;48.216;-1.698;2023-02-08T09:00:38;17.63;;;16.13;;
16862;SDS011;52193;48.216;-1.698;2023-02-08T09:03:05;18.83;;;16.98;;
16862;SDS011;52193;48.216;-1.698;2023-02-08T09:05:33;18.48;;;16.88;;
16862;SDS011;52193;48.216;-1.698;2023-02-08T09:08:00;18.15;;;16.45;;
16862;SDS011;52193;48.216;-1.698;2023-02-08T09:10:27;19.27;;;17.45;;
16862;SDS011;52193;48.216;-1.698;2023-02-08T09:12:55;20.25;;;18.35;;
16862;SDS011;52193;48.216;-1.698;2023-02-08T09:15:23;21.75;;;19.88;;
16862;SDS011;52193;48.216;-1.698;2023-02-08T09:17:50;20.40;;;18.40;;
16862;SDS011;52193;48.216;-1.698;2023-02-08T09:20:17;19.35;;;17.73;;
16862;SDS011;52193;48.216;-1.698;2023-02-08T09:22:44;17.45;;;15.95;;
16862;SDS011;52193;48.216;-1.698;2023-02-08T09:25:11;17.77;;;16.08;;
16862;SDS011;52193;48.216;-1.698;2023-02-08T09:27:38;17.08;;;15.57;;
16862;SDS011;52193;48.216;-1.698;2023-02-08T09:30:05;17.42;;;15.88;;
16862;SDS011;52193;48.216;-1.698;2023-02-08T09:32:34;17.42;;;15.73;;
16862;SDS011;52193;48.216;-1.698;2023-02-08T09:35:04;18.17;;;16.67;;
16862;SDS011;52193;48.216;-1.698;2023-02-08T09:37:31;18.05;;;16.42;;
16862;SDS011;52193;48.216;-1.698;2023-02-08T09:39:58;20.50;;;18.42;;
16862;SDS011;52193;48.216;-1.698;2023-02-08T09:42:36;19.45;;;17.85;;
16862;SDS011;52193;48.216;-1.698;2023-02-08T09:45:20;19.58;;;17.75;;
16862;SDS011;52193;48.216;-1.698;2023-02-08T09:47:58;19.90;;;18.13;;
16862;SDS011;52193;48.216;-1.698;2023-02-08T09:50:33;17.98;;;16.52;;
16862;SDS011;52193;48.216;-1.698;2023-02-08T09:53:06;16.13;;;14.82;;
16862;SDS011;52193;48.216;-1.698;2023-02-08T09:55:39;16.98;;;15.57;;
16862;SDS011;52193;48.216;-1.698;2023-02-08T09:58:12;15.75;;;14.45;;
16862;SDS011;52193;48.216;-1.698;2023-02-08T10:00:46;16.38;;;15.07;;
16862;SDS011;52193;48.216;-1.698;2023-02-08T10:03:20;15.27;;;14.00;;
16862;SDS011;52193;48.216;-1.698;2023-02-08T10:05:54;15.00;;;13.70;;
16862;SDS011;52193;48.216;-1.698;2023-02-08T10:08:22;16.20;;;14.85;;
16862;SDS011;52193;48.216;-1.698;2023-02-08T10:10:52;15.80;;;14.50;;
16862;SDS011;52193;48.216;-1.698;2023-02-08T10:13:29;15.55;;;14.27;;
16862;SDS011;52193;48.216;-1.698;2023-02-08T10:16:12;15.25;;;14.15;;
16862;SDS011;52193;48.216;-1.698;2023-02-08T10:18:54;16.27;;;14.77;;
16862;SDS011;52193;48.216;-1.698;2023-02-08T10:24:25;16.85;;;15.27;;
16862;SDS011;52193;48.216;-1.698;2023-02-08T10:27:05;16.30;;;14.73;;
16862;SDS011;52193;48.216;-1.698;2023-02-08T10:29:44;16.23;;;14.82;;
16862;SDS011;52193;48.216;-1.698;2023-02-08T10:32:22;13.55;;;12.55;;
16862;SDS011;52193;48.216;-1.698;2023-02-08T10:35:01;14.55;;;13.45;;
16862;SDS011;52193;48.216;-1.698;2023-02-08T10:37:32;15.18;;;13.98;;
16862;SDS011;52193;48.216;-1.698;2023-02-08T10:40:02;14.75;;;13.55;;
16862;SDS011;52193;48.216;-1.698;2023-02-08T10:42:40;13.65;;;12.52;;
16862;SDS011;52193;48.216;-1.698;2023-02-08T10:45:23;14.65;;;13.50;;
16862;SDS011;52193;48.216;-1.698;2023-02-08T10:47:54;15.60;;;14.30;;
16862;SDS011;52193;48.216;-1.698;2023-02-08T10:50:28;15.13;;;13.75;;
16862;SDS011;52193;48.216;-1.698;2023-02-08T10:52:59;13.50;;;12.40;;
16862;SDS011;52193;48.216;-1.698;2023-02-08T10:55:26;13.32;;;12.27;;
16862;SDS011;52193;48.216;-1.698;2023-02-08T10:57:56;12.63;;;11.70;;
16862;SDS011;52193;48.216;-1.698;2023-02-08T11:00:25;13.30;;;12.23;;
16862;SDS011;52193;48.216;-1.698;2023-02-08T11:02:54;13.00;;;12.00;;
16862;SDS011;52193;48.216;-1.698;2023-02-08T11:05:32;12.43;;;11.52;;
16862;SDS011;52193;48.216;-1.698;2023-02-08T11:08:04;12.90;;;11.90;;
16862;SDS011;52193;48.216;-1.698;2023-02-08T11:10:32;13.38;;;12.18;;
16862;SDS011;52193;48.216;-1.698;2023-02-08T11:13:02;14.90;;;13.73;;
16862;SDS011;52193;48.216;-1.698;2023-02-08T11:15:34;16.70;;;15.20;;
16862;SDS011;52193;48.216;-1.698;2023-02-08T11:18:04;15.68;;;14.38;;
16862;SDS011;52193;48.216;-1.698;2023-02-08T11:20:34;15.02;;;13.63;;
16862;SDS011;52193;48.216;-1.698;2023-02-08T11:23:04;16.08;;;14.75;;
16862;SDS011;52193;48.216;-1.698;2023-02-08T11:25:42;15.18;;;13.85;;
16862;SDS011;52193;48.216;-1.698;2023-02-08T11:28:20;15.57;;;14.38;;
16862;SDS011;52193;48.216;-1.698;2023-02-08T11:30:56;12.90;;;11.90;;
16862;SDS011;52193;48.216;-1.698;2023-02-08T11:33:26;12.65;;;11.65;;
16862;SDS011;52193;48.216;-1.698;2023-02-08T11:36:02;13.13;;;11.90;;
16862;SDS011;52193;48.216;-1.698;2023-02-08T11:38:32;14.50;;;13.00;;
16862;SDS011;52193;48.216;-1.698;2023-02-08T11:41:02;13.52;;;12.43;;
16862;SDS011;52193;48.216;-1.698;2023-02-08T11:43:31;12.52;;;11.48;;
16862;SDS011;52193;48.216;-1.698;2023-02-08T11:46:00;13.35;;;11.98;;
16862;SDS011;52193;48.216;-1.698;2023-02-08T11:48:33;13.13;;;12.07;;
16862;SDS011;52193;48.216;-1.698;2023-02-08T11:51:06;13.07;;;12.07;;
16862;SDS011;52193;48.216;-1.698;2023-02-08T11:53:35;12.82;;;11.80;;
16862;SDS011;52193;48.216;-1.698;2023-02-08T11:56:06;15.82;;;14.52;;
16862;SDS011;52193;48.216;-1.698;2023-02-08T11:58:40;13.27;;;12.27;;
16862;SDS011;52193;48.216;-1.698;2023-02-08T12:01:16;13.30;;;12.30;;
16862;SDS011;52193;48.216;-1.698;2023-02-08T12:03:45;13.98;;;12.90;;
16862;SDS011;52193;48.216;-1.698;2023-02-08T12:06:24;15.57;;;14.23;;
16862;SDS011;52193;48.216;-1.698;2023-02-08T12:09:08;15.63;;;14.25;;
16862;SDS011;52193;48.216;-1.698;2023-02-08T12:11:45;23.08;;;20.77;;
16862;SDS011;52193;48.216;-1.698;2023-02-08T12:14:25;18.15;;;16.42;;
16862;SDS011;52193;48.216;-1.698;2023-02-08T12:20:22;19.42;;;17.67;;
16862;SDS011;52193;48.216;-1.698;2023-02-08T12:23:16;17.45;;;15.50;;
16862;SDS011;52193;48.216;-1.698;2023-02-08T12:26:09;15.85;;;14.35;;
16862;SDS011;52193;48.216;-1.698;2023-02-08T12:28:46;14.88;;;13.68;;
16862;SDS011;52193;48.216;-1.698;2023-02-08T12:31:34;14.32;;;13.10;;
16862;SDS011;52193;48.216;-1.698;2023-02-08T12:34:11;15.20;;;14.00;;
16862;SDS011;52193;48.216;-1.698;2023-02-08T12:39:57;12.38;;;11.38;;
16862;SDS011;52193;48.216;-1.698;2023-02-08T12:42:56;14.43;;;13.13;;
16862;SDS011;52193;48.216;-1.698;2023-02-08T12:48:32;12.38;;;11.38;;
16862;SDS011;52193;48.216;-1.698;2023-02-08T12:51:27;11.77;;;10.77;;
16862;SDS011;52193;48.216;-1.698;2023-02-08T12:54:02;11.23;;;10.35;;
16862;SDS011;52193;48.216;-1.698;2023-02-08T12:56:36;10.55;;;9.70;;
16862;SDS011;52193;48.216;-1.698;2023-02-08T12:59:10;11.07;;;10.27;;
16862;SDS011;52193;48.216;-1.698;2023-02-08T13:01:45;11.45;;;10.43;;
16862;SDS011;52193;48.216;-1.698;2023-02-08T13:04:15;10.27;;;9.43;;
16862;SDS011;52193;48.216;-1.698;2023-02-08T13:06:48;11.40;;;10.40;;
16862;SDS011;52193;48.216;-1.698;2023-02-08T13:09:19;10.02;;;9.23;;
16862;SDS011;52193;48.216;-1.698;2023-02-08T13:12:07;11.25;;;10.25;;
16862;SDS011;52193;48.216;-1.698;2023-02-08T13:14:40;11.13;;;10.18;;
16862;SDS011;52193;48.216;-1.698;2023-02-08T13:17:12;10.20;;;9.27;;
16862;SDS011;52193;48.216;-1.698;2023-02-08T13:19:47;9.85;;;9.05;;
16862;SDS011;52193;48.216;-1.698;2023-02-08T13:22:20;10.45;;;9.65;;
16862;SDS011;52193;48.216;-1.698;2023-02-08T13:24:47;11.77;;;10.75;;
16862;SDS011;52193;48.216;-1.698;2023-02-08T13:27:18;11.30;;;10.32;;
16862;SDS011;52193;48.216;-1.698;2023-02-08T13:29:46;11.77;;;10.88;;
16862;SDS011;52193;48.216;-1.698;2023-02-08T13:32:16;11.98;;;10.98;;
16862;SDS011;52193;48.216;-1.698;2023-02-08T13:34:54;11.43;;;10.43;;
16862;SDS011;52193;48.216;-1.698;2023-02-08T13:37:26;11.48;;;10.38;;
16862;SDS011;52193;48.216;-1.698;2023-02-08T13:39:59;10.60;;;9.70;;
16862;SDS011;52193;48.216;-1.698;2023-02-08T13:42:32;13.30;;;12.23;;
16862;SDS011;52193;48.216;-1.698;2023-02-08T13:45:02;11.98;;;10.88;;
16862;SDS011;52193;48.216;-1.698;2023-02-08T13:47:32;9.95;;;9.25;;
16862;SDS011;52193;48.216;-1.698;2023-02-08T13:50:08;9.85;;;9.05;;
16862;SDS011;52193;48.216;-1.698;2023-02-08T13:53:03;11.05;;;10.15;;
16862;SDS011;52193;48.216;-1.698;2023-02-08T13:55:50;10.77;;;9.93;;
16862;SDS011;52193;48.216;-1.698;2023-02-08T13:58:37;11.73;;;10.63;;
16862;SDS011;52193;48.216;-1.698;2023-02-08T14:01:25;12.02;;;10.98;;
16862;SDS011;52193;48.216;-1.698;2023-02-08T14:06:58;10.10;;;9.30;;
16862;SDS011;52193;48.216;-1.698;2023-02-08T14:09:35;9.63;;;8.82;;
16862;SDS011;52193;48.216;-1.698;2023-02-08T14:12:11;9.98;;;9.02;;
16862;SDS011;52193;48.216;-1.698;2023-02-08T14:17:49;8.93;;;8.23;;
16862;SDS011;52193;48.216;-1.698;2023-02-08T14:20:19;8.48;;;7.75;;
16862;SDS011;52193;48.216;-1.698;2023-02-08T14:22:51;13.23;;;12.13;;
16862;SDS011;52193;48.216;-1.698;2023-02-08T14:25:20;10.35;;;9.55;;
16862;SDS011;52193;48.216;-1.698;2023-02-08T14:27:49;9.98;;;8.45;;
16862;SDS011;52193;48.216;-1.698;2023-02-08T14:30:20;8.75;;;7.95;;
16862;SDS011;52193;48.216;-1.698;2023-02-08T14:32:53;9.48;;;8.63;;
16862;SDS011;52193;48.216;-1.698;2023-02-08T14:35:38;8.82;;;8.00;;
16862;SDS011;52193;48.216;-1.698;2023-02-08T14:41:07;10.27;;;9.38;;
16862;SDS011;52193;48.216;-1.698;2023-02-08T14:43:35;7.88;;;7.28;;
16862;SDS011;52193;48.216;-1.698;2023-02-08T14:49:10;8.07;;;7.43;;
16862;SDS011;52193;48.216;-1.698;2023-02-08T14:51:39;11.88;;;10.90;;
16862;SDS011;52193;48.216;-1.698;2023-02-08T14:54:14;8.93;;;8.23;;
16862;SDS011;52193;48.216;-1.698;2023-02-08T14:56:49;8.23;;;7.63;;
16862;SDS011;52193;48.216;-1.698;2023-02-08T14:59:21;9.23;;;8.43;;
16862;SDS011;52193;48.216;-1.698;2023-02-08T15:01:54;8.45;;;7.85;;